sensor_id;sensor_type;location;lat;lon;timestamp;temperature;humidity
68251;DHT22;55066;51.560;4.642;2023-04-05T00:00:30;3.67;93.29
68251;DHT22;55066;51.560;4.642;2023-04-05T00:02:59;3.72;93.64
68251;DHT22;55066;51.560;4.642;2023-04-05T00:05:25;3.59;93.47
68251;DHT22;55066;51.560;4.642;2023-04-05T00:08:02;3.63;94.02
68251;DHT22;55066;51.560;4.642;2023-04-05T00:10:30;3.60;93.80
68251;DHT22;55066;51.560;4.642;2023-04-05T00:12:56;3.52;94.13
68251;DHT22;55066;51.560;4.642;2023-04-05T00:15:22;3.46;94.42
68251;DHT22;55066;51.560;4.642;2023-04-05T00:17:47;3.49;94.41
68251;DHT22;55066;51.560;4.642;2023-04-05T00:20:13;3.51;94.13
68251;DHT22;55066;51.560;4.642;2023-04-05T00:22:40;3.46;94.04
68251;DHT22;55066;51.560;4.642;2023-04-05T00:25:07;3.42;94.36
68251;DHT22;55066;51.560;4.642;2023-04-05T00:27:33;3.40;94.31
68251;DHT22;55066;51.560;4.642;2023-04-05T00:29:58;3.38;94.18
68251;DHT22;55066;51.560;4.642;2023-04-05T00:32:24;3.35;94.25
68251;DHT22;55066;51.560;4.642;2023-04-05T00:34:49;3.39;94.11
68251;DHT22;55066;51.560;4.642;2023-04-05T00:37:15;3.32;94.18
68251;DHT22;55066;51.560;4.642;2023-04-05T00:39:40;3.29;94.09
68251;DHT22;55066;51.560;4.642;2023-04-05T00:42:06;3.28;94.07
68251;DHT22;55066;51.560;4.642;2023-04-05T00:44:33;3.22;94.02
68251;DHT22;55066;51.560;4.642;2023-04-05T00:47:00;3.24;93.98
68251;DHT22;55066;51.560;4.642;2023-04-05T00:49:28;3.22;93.87
68251;DHT22;55066;51.560;4.642;2023-04-05T00:51:54;3.14;94.07
68251;DHT22;55066;51.560;4.642;2023-04-05T00:54:20;3.09;93.66
68251;DHT22;55066;51.560;4.642;2023-04-05T00:56:46;3.05;94.04
68251;DHT22;55066;51.560;4.642;2023-04-05T00:59:11;3.03;94.06
68251;DHT22;55066;51.560;4.642;2023-04-05T01:01:38;2.98;93.97
68251;DHT22;55066;51.560;4.642;2023-04-05T01:04:05;2.93;94.09
68251;DHT22;55066;51.560;4.642;2023-04-05T01:06:51;2.94;94.14
68251;DHT22;55066;51.560;4.642;2023-04-05T01:09:39;2.90;94.04
68251;DHT22;55066;51.560;4.642;2023-04-05T01:12:06;2.80;94.09
68251;DHT22;55066;51.560;4.642;2023-04-05T01:14:50;2.72;94.09
68251;DHT22;55066;51.560;4.642;2023-04-05T01:17:17;2.70;94.54
68251;DHT22;55066;51.560;4.642;2023-04-05T01:19:52;2.67;94.28
68251;DHT22;55066;51.560;4.642;2023-04-05T01:22:44;2.67;94.22
68251;DHT22;55066;51.560;4.642;2023-04-05T01:28:43;2.59;94.26
68251;DHT22;55066;51.560;4.642;2023-04-05T01:31:25;2.57;94.20
68251;DHT22;55066;51.560;4.642;2023-04-05T01:33:54;2.54;94.22
68251;DHT22;55066;51.560;4.642;2023-04-05T01:36:26;2.50;94.26
68251;DHT22;55066;51.560;4.642;2023-04-05T01:38:56;2.45;94.23
68251;DHT22;55066;51.560;4.642;2023-04-05T01:41:22;2.46;94.21
68251;DHT22;55066;51.560;4.642;2023-04-05T01:43:47;2.42;94.28
68251;DHT22;55066;51.560;4.642;2023-04-05T01:46:13;2.38;94.12
68251;DHT22;55066;51.560;4.642;2023-04-05T01:48:39;2.25;94.38
68251;DHT22;55066;51.560;4.642;2023-04-05T01:51:05;2.26;94.48
68251;DHT22;55066;51.560;4.642;2023-04-05T01:53:30;2.25;94.43
68251;DHT22;55066;51.560;4.642;2023-04-05T01:56:02;2.24;94.30
68251;DHT22;55066;51.560;4.642;2023-04-05T01:58:27;2.20;94.29
68251;DHT22;55066;51.560;4.642;2023-04-05T02:00:54;2.17;94.20
68251;DHT22;55066;51.560;4.642;2023-04-05T02:03:21;2.18;94.29
68251;DHT22;55066;51.560;4.642;2023-04-05T02:05:46;2.14;94.19
68251;DHT22;55066;51.560;4.642;2023-04-05T02:08:12;2.10;94.05
68251;DHT22;55066;51.560;4.642;2023-04-05T02:10:39;2.10;94.16
68251;DHT22;55066;51.560;4.642;2023-04-05T02:13:05;2.07;94.11
68251;DHT22;55066;51.560;4.642;2023-04-05T02:15:30;2.08;94.12
68251;DHT22;55066;51.560;4.642;2023-04-05T02:17:58;2.07;93.97
68251;DHT22;55066;51.560;4.642;2023-04-05T02:20:27;2.00;94.02
68251;DHT22;55066;51.560;4.642;2023-04-05T02:22:53;2.01;94.00
68251;DHT22;55066;51.560;4.642;2023-04-05T02:25:18;1.95;94.01
68251;DHT22;55066;51.560;4.642;2023-04-05T02:27:44;1.95;93.93
68251;DHT22;55066;51.560;4.642;2023-04-05T02:30:10;1.93;94.01
68251;DHT22;55066;51.560;4.642;2023-04-05T02:32:38;1.91;94.01
68251;DHT22;55066;51.560;4.642;2023-04-05T02:35:04;1.87;93.98
68251;DHT22;55066;51.560;4.642;2023-04-05T02:37:29;1.84;94.02
68251;DHT22;55066;51.560;4.642;2023-04-05T02:39:55;1.83;93.89
68251;DHT22;55066;51.560;4.642;2023-04-05T02:42:20;1.81;93.88
68251;DHT22;55066;51.560;4.642;2023-04-05T02:44:50;1.74;93.85
68251;DHT22;55066;51.560;4.642;2023-04-05T02:47:16;1.71;93.96
68251;DHT22;55066;51.560;4.642;2023-04-05T02:49:49;1.63;93.98
68251;DHT22;55066;51.560;4.642;2023-04-05T02:52:15;1.63;94.11
68251;DHT22;55066;51.560;4.642;2023-04-05T02:54:43;1.62;93.97
68251;DHT22;55066;51.560;4.642;2023-04-05T02:57:12;1.62;93.99
68251;DHT22;55066;51.560;4.642;2023-04-05T02:59:48;1.55;93.97
68251;DHT22;55066;51.560;4.642;2023-04-05T03:02:13;1.55;93.94
68251;DHT22;55066;51.560;4.642;2023-04-05T03:04:39;1.53;93.97
68251;DHT22;55066;51.560;4.642;2023-04-05T03:07:05;1.52;93.93
68251;DHT22;55066;51.560;4.642;2023-04-05T03:09:36;1.46;93.85
68251;DHT22;55066;51.560;4.642;2023-04-05T03:12:05;1.45;93.96
68251;DHT22;55066;51.560;4.642;2023-04-05T03:14:35;1.45;93.94
68251;DHT22;55066;51.560;4.642;2023-04-05T03:17:01;1.39;93.88
68251;DHT22;55066;51.560;4.642;2023-04-05T03:19:33;1.34;93.94
68251;DHT22;55066;51.560;4.642;2023-04-05T03:22:09;1.35;93.96
68251;DHT22;55066;51.560;4.642;2023-04-05T03:24:36;1.34;93.87
68251;DHT22;55066;51.560;4.642;2023-04-05T03:27:03;1.29;93.82
68251;DHT22;55066;51.560;4.642;2023-04-05T03:29:35;1.27;93.79
68251;DHT22;55066;51.560;4.642;2023-04-05T03:32:08;1.24;93.66
68251;DHT22;55066;51.560;4.642;2023-04-05T03:34:37;1.18;93.96
68251;DHT22;55066;51.560;4.642;2023-04-05T03:37:04;1.15;93.99
68251;DHT22;55066;51.560;4.642;2023-04-05T03:39:40;1.12;93.96
68251;DHT22;55066;51.560;4.642;2023-04-05T03:42:06;1.11;93.89
68251;DHT22;55066;51.560;4.642;2023-04-05T03:44:31;1.07;94.02
68251;DHT22;55066;51.560;4.642;2023-04-05T03:46:57;1.05;93.94
68251;DHT22;55066;51.560;4.642;2023-04-05T03:49:22;1.04;93.92
68251;DHT22;55066;51.560;4.642;2023-04-05T03:51:48;1.04;93.85
68251;DHT22;55066;51.560;4.642;2023-04-05T03:54:16;1.01;93.83
68251;DHT22;55066;51.560;4.642;2023-04-05T03:56:41;0.98;93.78
68251;DHT22;55066;51.560;4.642;2023-04-05T03:59:11;0.95;93.90
68251;DHT22;55066;51.560;4.642;2023-04-05T04:01:37;0.94;93.77
68251;DHT22;55066;51.560;4.642;2023-04-05T04:04:03;0.90;93.80
68251;DHT22;55066;51.560;4.642;2023-04-05T04:06:29;0.85;93.81
68251;DHT22;55066;51.560;4.642;2023-04-05T04:08:55;0.85;93.88
68251;DHT22;55066;51.560;4.642;2023-04-05T04:11:21;0.84;93.91
68251;DHT22;55066;51.560;4.642;2023-04-05T04:13:46;0.79;93.70
68251;DHT22;55066;51.560;4.642;2023-04-05T04:16:19;0.70;94.13
68251;DHT22;55066;51.560;4.642;2023-04-05T04:19:03;0.70;94.03
68251;DHT22;55066;51.560;4.642;2023-04-05T04:22:01;0.73;93.91
68251;DHT22;55066;51.560;4.642;2023-04-05T04:24:48;0.69;93.87
68251;DHT22;55066;51.560;4.642;2023-04-05T04:27:33;0.63;93.78
68251;DHT22;55066;51.560;4.642;2023-04-05T04:30:12;0.60;93.96
68251;DHT22;55066;51.560;4.642;2023-04-05T04:32:56;0.57;93.99
68251;DHT22;55066;51.560;4.642;2023-04-05T04:35:31;0.56;93.97
68251;DHT22;55066;51.560;4.642;2023-04-05T04:38:19;0.54;93.85
68251;DHT22;55066;51.560;4.642;2023-04-05T04:41:06;0.52;93.84
68251;DHT22;55066;51.560;4.642;2023-04-05T04:44:01;0.52;93.86
68251;DHT22;55066;51.560;4.642;2023-04-05T04:46:56;0.46;93.82
68251;DHT22;55066;51.560;4.642;2023-04-05T04:49:45;0.39;94.05
68251;DHT22;55066;51.560;4.642;2023-04-05T04:52:10;0.38;93.95
68251;DHT22;55066;51.560;4.642;2023-04-05T04:54:38;0.35;94.11
68251;DHT22;55066;51.560;4.642;2023-04-05T04:57:06;0.36;94.01
68251;DHT22;55066;51.560;4.642;2023-04-05T04:59:31;0.39;93.88
68251;DHT22;55066;51.560;4.642;2023-04-05T05:01:57;0.39;93.67
68251;DHT22;55066;51.560;4.642;2023-04-05T05:04:22;0.39;93.59
68251;DHT22;55066;51.560;4.642;2023-04-05T05:06:52;0.38;93.57
68251;DHT22;55066;51.560;4.642;2023-04-05T05:09:18;0.38;93.53
68251;DHT22;55066;51.560;4.642;2023-04-05T05:11:50;0.33;93.53
68251;DHT22;55066;51.560;4.642;2023-04-05T05:14:16;0.36;93.47
68251;DHT22;55066;51.560;4.642;2023-04-05T05:16:41;0.29;93.50
68251;DHT22;55066;51.560;4.642;2023-04-05T05:19:07;0.30;93.53
68251;DHT22;55066;51.560;4.642;2023-04-05T05:21:43;0.30;93.45
68251;DHT22;55066;51.560;4.642;2023-04-05T05:24:08;0.30;93.40
68251;DHT22;55066;51.560;4.642;2023-04-05T05:26:34;0.33;93.27
68251;DHT22;55066;51.560;4.642;2023-04-05T05:29:00;0.35;93.24
68251;DHT22;55066;51.560;4.642;2023-04-05T05:31:28;0.36;93.10
68251;DHT22;55066;51.560;4.642;2023-04-05T05:33:53;0.33;92.94
68251;DHT22;55066;51.560;4.642;2023-04-05T05:36:19;0.35;93.02
68251;DHT22;55066;51.560;4.642;2023-04-05T05:38:47;0.32;92.94
68251;DHT22;55066;51.560;4.642;2023-04-05T05:41:13;0.35;93.00
68251;DHT22;55066;51.560;4.642;2023-04-05T05:43:38;0.39;92.76
68251;DHT22;55066;51.560;4.642;2023-04-05T05:46:04;0.43;92.58
68251;DHT22;55066;51.560;4.642;2023-04-05T05:48:29;0.48;92.43
68251;DHT22;55066;51.560;4.642;2023-04-05T05:50:55;0.46;92.39
68251;DHT22;55066;51.560;4.642;2023-04-05T05:53:21;0.46;92.48
68251;DHT22;55066;51.560;4.642;2023-04-05T05:55:46;0.52;92.34
68251;DHT22;55066;51.560;4.642;2023-04-05T05:58:12;0.57;92.94
68251;DHT22;55066;51.560;4.642;2023-04-05T06:00:37;0.59;91.90
68251;DHT22;55066;51.560;4.642;2023-04-05T06:03:03;0.67;91.68
68251;DHT22;55066;51.560;4.642;2023-04-05T06:05:30;0.74;91.41
68251;DHT22;55066;51.560;4.642;2023-04-05T06:07:55;0.74;91.37
68251;DHT22;55066;51.560;4.642;2023-04-05T06:10:21;0.80;91.28
68251;DHT22;55066;51.560;4.642;2023-04-05T06:12:46;0.81;90.98
68251;DHT22;55066;51.560;4.642;2023-04-05T06:15:11;0.80;91.91
68251;DHT22;55066;51.560;4.642;2023-04-05T06:17:37;0.92;90.97
68251;DHT22;55066;51.560;4.642;2023-04-05T06:20:07;0.98;90.56
68251;DHT22;55066;51.560;4.642;2023-04-05T06:22:34;1.04;90.59
68251;DHT22;55066;51.560;4.642;2023-04-05T06:25:01;1.14;92.55
68251;DHT22;55066;51.560;4.642;2023-04-05T06:27:27;1.19;95.52
68251;DHT22;55066;51.560;4.642;2023-04-05T06:29:52;1.29;93.61
68251;DHT22;55066;51.560;4.642;2023-04-05T06:32:19;1.36;92.92
68251;DHT22;55066;51.560;4.642;2023-04-05T06:34:45;1.52;94.74
68251;DHT22;55066;51.560;4.642;2023-04-05T06:37:13;1.60;94.25
68251;DHT22;55066;51.560;4.642;2023-04-05T06:39:38;1.71;94.78
68251;DHT22;55066;51.560;4.642;2023-04-05T06:42:04;1.85;95.63
68251;DHT22;55066;51.560;4.642;2023-04-05T06:44:37;1.97;94.98
68251;DHT22;55066;51.560;4.642;2023-04-05T06:47:02;2.12;94.37
68251;DHT22;55066;51.560;4.642;2023-04-05T06:49:29;2.29;94.16
68251;DHT22;55066;51.560;4.642;2023-04-05T06:51:54;2.53;92.57
68251;DHT22;55066;51.560;4.642;2023-04-05T06:54:19;2.64;91.84
68251;DHT22;55066;51.560;4.642;2023-04-05T06:56:47;2.69;91.87
68251;DHT22;55066;51.560;4.642;2023-04-05T06:59:12;2.75;91.08
68251;DHT22;55066;51.560;4.642;2023-04-05T07:01:38;2.93;88.09
68251;DHT22;55066;51.560;4.642;2023-04-05T07:04:03;3.21;89.47
68251;DHT22;55066;51.560;4.642;2023-04-05T07:06:29;3.24;89.43
68251;DHT22;55066;51.560;4.642;2023-04-05T07:08:56;3.34;87.40
68251;DHT22;55066;51.560;4.642;2023-04-05T07:11:21;3.42;84.73
68251;DHT22;55066;51.560;4.642;2023-04-05T07:13:46;3.67;87.63
68251;DHT22;55066;51.560;4.642;2023-04-05T07:16:12;3.74;87.79
68251;DHT22;55066;51.560;4.642;2023-04-05T07:18:37;3.80;87.94
68251;DHT22;55066;51.560;4.642;2023-04-05T07:21:03;4.01;87.84
68251;DHT22;55066;51.560;4.642;2023-04-05T07:23:29;4.18;86.13
68251;DHT22;55066;51.560;4.642;2023-04-05T07:26:00;4.32;85.96
68251;DHT22;55066;51.560;4.642;2023-04-05T07:28:27;4.45;84.30
68251;DHT22;55066;51.560;4.642;2023-04-05T07:30:52;4.44;83.57
68251;DHT22;55066;51.560;4.642;2023-04-05T07:33:17;4.46;84.85
68251;DHT22;55066;51.560;4.642;2023-04-05T07:35:43;4.72;85.77
68251;DHT22;55066;51.560;4.642;2023-04-05T07:38:08;5.04;84.07
68251;DHT22;55066;51.560;4.642;2023-04-05T07:40:35;5.17;84.36
68251;DHT22;55066;51.560;4.642;2023-04-05T07:43:00;5.21;84.80
68251;DHT22;55066;51.560;4.642;2023-04-05T07:45:26;5.36;84.54
68251;DHT22;55066;51.560;4.642;2023-04-05T07:47:51;5.46;85.15
68251;DHT22;55066;51.560;4.642;2023-04-05T07:50:17;5.51;83.58
68251;DHT22;55066;51.560;4.642;2023-04-05T07:52:42;5.67;83.12
68251;DHT22;55066;51.560;4.642;2023-04-05T07:55:08;5.85;81.87
68251;DHT22;55066;51.560;4.642;2023-04-05T07:57:34;5.98;82.70
68251;DHT22;55066;51.560;4.642;2023-04-05T08:00:00;6.06;81.79
68251;DHT22;55066;51.560;4.642;2023-04-05T08:02:25;6.21;82.07
68251;DHT22;55066;51.560;4.642;2023-04-05T08:04:50;6.34;81.55
68251;DHT22;55066;51.560;4.642;2023-04-05T08:07:16;6.48;80.29
68251;DHT22;55066;51.560;4.642;2023-04-05T08:09:41;6.66;80.45
68251;DHT22;55066;51.560;4.642;2023-04-05T08:12:07;6.66;80.26
68251;DHT22;55066;51.560;4.642;2023-04-05T08:14:32;6.82;80.65
68251;DHT22;55066;51.560;4.642;2023-04-05T08:16:57;6.92;79.74
68251;DHT22;55066;51.560;4.642;2023-04-05T08:19:23;6.99;79.36
68251;DHT22;55066;51.560;4.642;2023-04-05T08:21:48;7.12;78.51
68251;DHT22;55066;51.560;4.642;2023-04-05T08:24:14;7.15;78.50
68251;DHT22;55066;51.560;4.642;2023-04-05T08:26:39;7.34;77.70
68251;DHT22;55066;51.560;4.642;2023-04-05T08:29:06;7.47;75.78
68251;DHT22;55066;51.560;4.642;2023-04-05T08:31:31;7.75;75.21
68251;DHT22;55066;51.560;4.642;2023-04-05T08:33:57;7.80;74.34
68251;DHT22;55066;51.560;4.642;2023-04-05T08:36:23;7.86;73.73
68251;DHT22;55066;51.560;4.642;2023-04-05T08:38:48;7.97;73.22
68251;DHT22;55066;51.560;4.642;2023-04-05T08:41:18;7.82;72.77
68251;DHT22;55066;51.560;4.642;2023-04-05T08:43:54;7.93;73.35
68251;DHT22;55066;51.560;4.642;2023-04-05T08:46:21;8.15;73.63
68251;DHT22;55066;51.560;4.642;2023-04-05T08:48:47;8.24;70.59
68251;DHT22;55066;51.560;4.642;2023-04-05T08:51:20;8.32;70.98
68251;DHT22;55066;51.560;4.642;2023-04-05T08:53:49;8.46;70.89
68251;DHT22;55066;51.560;4.642;2023-04-05T08:56:19;8.59;68.60
68251;DHT22;55066;51.560;4.642;2023-04-05T08:58:55;8.75;69.12
68251;DHT22;55066;51.560;4.642;2023-04-05T09:01:22;8.81;67.95
68251;DHT22;55066;51.560;4.642;2023-04-05T09:03:48;8.97;67.10
68251;DHT22;55066;51.560;4.642;2023-04-05T09:06:15;9.14;67.26
68251;DHT22;55066;51.560;4.642;2023-04-05T09:08:41;9.03;67.77
68251;DHT22;55066;51.560;4.642;2023-04-05T09:11:07;8.90;62.68
68251;DHT22;55066;51.560;4.642;2023-04-05T09:13:32;9.08;65.35
68251;DHT22;55066;51.560;4.642;2023-04-05T09:16:00;9.18;64.99
68251;DHT22;55066;51.560;4.642;2023-04-05T09:18:25;9.24;65.60
68251;DHT22;55066;51.560;4.642;2023-04-05T09:20:55;9.38;65.87
68251;DHT22;55066;51.560;4.642;2023-04-05T09:23:21;9.61;67.08
68251;DHT22;55066;51.560;4.642;2023-04-05T09:25:46;9.52;68.49
68251;DHT22;55066;51.560;4.642;2023-04-05T09:28:16;9.99;66.51
68251;DHT22;55066;51.560;4.642;2023-04-05T09:30:45;10.06;66.25
68251;DHT22;55066;51.560;4.642;2023-04-05T09:33:14;10.30;69.00
68251;DHT22;55066;51.560;4.642;2023-04-05T09:35:40;10.28;67.71
68251;DHT22;55066;51.560;4.642;2023-04-05T09:38:06;10.38;67.44
68251;DHT22;55066;51.560;4.642;2023-04-05T09:40:45;10.36;66.02
68251;DHT22;55066;51.560;4.642;2023-04-05T09:43:40;10.25;63.74
68251;DHT22;55066;51.560;4.642;2023-04-05T09:46:06;10.00;64.27
68251;DHT22;55066;51.560;4.642;2023-04-05T09:51:10;10.66;64.22
68251;DHT22;55066;51.560;4.642;2023-04-05T09:53:36;10.58;71.24
68251;DHT22;55066;51.560;4.642;2023-04-05T09:56:08;10.95;63.84
68251;DHT22;55066;51.560;4.642;2023-04-05T09:58:35;10.59;62.29
68251;DHT22;55066;51.560;4.642;2023-04-05T10:01:03;10.13;62.40
68251;DHT22;55066;51.560;4.642;2023-04-05T10:03:28;10.27;62.70
68251;DHT22;55066;51.560;4.642;2023-04-05T10:05:54;10.11;61.90
68251;DHT22;55066;51.560;4.642;2023-04-05T10:08:20;10.36;66.59
68251;DHT22;55066;51.560;4.642;2023-04-05T10:10:49;10.69;64.16
68251;DHT22;55066;51.560;4.642;2023-04-05T10:13:16;9.93;61.34
68251;DHT22;55066;51.560;4.642;2023-04-05T10:15:44;10.31;61.36
68251;DHT22;55066;51.560;4.642;2023-04-05T10:18:17;10.61;62.31
68251;DHT22;55066;51.560;4.642;2023-04-05T10:20:48;10.80;70.12
68251;DHT22;55066;51.560;4.642;2023-04-05T10:23:23;11.12;70.16
68251;DHT22;55066;51.560;4.642;2023-04-05T10:28:29;11.10;62.86
68251;DHT22;55066;51.560;4.642;2023-04-05T10:31:11;10.68;62.17
68251;DHT22;55066;51.560;4.642;2023-04-05T10:33:46;10.92;60.75
68251;DHT22;55066;51.560;4.642;2023-04-05T10:36:36;11.57;64.28
68251;DHT22;55066;51.560;4.642;2023-04-05T10:39:22;11.72;62.75
68251;DHT22;55066;51.560;4.642;2023-04-05T10:41:58;11.24;64.22
68251;DHT22;55066;51.560;4.642;2023-04-05T10:44:24;11.67;63.68
68251;DHT22;55066;51.560;4.642;2023-04-05T10:46:52;11.99;69.50
68251;DHT22;55066;51.560;4.642;2023-04-05T10:51:54;11.23;57.96
68251;DHT22;55066;51.560;4.642;2023-04-05T10:54:21;11.77;61.45
68251;DHT22;55066;51.560;4.642;2023-04-05T10:56:47;11.48;59.87
68251;DHT22;55066;51.560;4.642;2023-04-05T10:59:13;11.41;58.46
68251;DHT22;55066;51.560;4.642;2023-04-05T11:01:39;12.19;58.88
68251;DHT22;55066;51.560;4.642;2023-04-05T11:04:13;12.36;66.21
68251;DHT22;55066;51.560;4.642;2023-04-05T11:06:39;12.98;73.10
68251;DHT22;55066;51.560;4.642;2023-04-05T11:09:17;12.57;65.58
68251;DHT22;55066;51.560;4.642;2023-04-05T11:11:43;13.05;62.31
68251;DHT22;55066;51.560;4.642;2023-04-05T11:14:20;12.80;60.22
68251;DHT22;55066;51.560;4.642;2023-04-05T11:16:48;13.33;63.36
68251;DHT22;55066;51.560;4.642;2023-04-05T11:19:18;13.57;76.24
68251;DHT22;55066;51.560;4.642;2023-04-05T11:21:44;13.60;58.06
68251;DHT22;55066;51.560;4.642;2023-04-05T11:24:12;13.92;74.17
68251;DHT22;55066;51.560;4.642;2023-04-05T11:29:17;14.47;61.03
68251;DHT22;55066;51.560;4.642;2023-04-05T11:31:58;14.36;78.87
68251;DHT22;55066;51.560;4.642;2023-04-05T11:34:24;13.13;58.57
68251;DHT22;55066;51.560;4.642;2023-04-05T11:36:50;12.99;61.99
68251;DHT22;55066;51.560;4.642;2023-04-05T11:42:09;13.26;57.65
68251;DHT22;55066;51.560;4.642;2023-04-05T11:44:46;14.02;74.34
68251;DHT22;55066;51.560;4.642;2023-04-05T11:47:13;13.77;55.85
68251;DHT22;55066;51.560;4.642;2023-04-05T11:49:41;13.39;59.21
68251;DHT22;55066;51.560;4.642;2023-04-05T11:52:32;13.56;64.85
68251;DHT22;55066;51.560;4.642;2023-04-05T11:54:58;13.82;64.23
68251;DHT22;55066;51.560;4.642;2023-04-05T11:57:23;13.95;61.92
68251;DHT22;55066;51.560;4.642;2023-04-05T11:59:50;13.97;56.90
68251;DHT22;55066;51.560;4.642;2023-04-05T12:02:16;14.09;57.18
68251;DHT22;55066;51.560;4.642;2023-04-05T12:04:41;14.68;61.06
68251;DHT22;55066;51.560;4.642;2023-04-05T12:09:54;15.44;81.45
68251;DHT22;55066;51.560;4.642;2023-04-05T12:12:20;15.09;57.87
68251;DHT22;55066;51.560;4.642;2023-04-05T12:14:45;14.61;57.51
68251;DHT22;55066;51.560;4.642;2023-04-05T12:17:10;14.41;70.03
68251;DHT22;55066;51.560;4.642;2023-04-05T12:19:36;15.46;63.78
68251;DHT22;55066;51.560;4.642;2023-04-05T12:22:01;16.12;78.48
68251;DHT22;55066;51.560;4.642;2023-04-05T12:24:27;16.11;63.83
68251;DHT22;55066;51.560;4.642;2023-04-05T12:26:52;15.57;65.43
68251;DHT22;55066;51.560;4.642;2023-04-05T12:29:18;16.38;86.57
68251;DHT22;55066;51.560;4.642;2023-04-05T12:31:45;15.70;53.63
68251;DHT22;55066;51.560;4.642;2023-04-05T12:34:12;15.91;75.50
68251;DHT22;55066;51.560;4.642;2023-04-05T12:36:42;16.62;85.91
68251;DHT22;55066;51.560;4.642;2023-04-05T12:39:09;17.27;86.57
68251;DHT22;55066;51.560;4.642;2023-04-05T12:41:35;17.17;79.63
68251;DHT22;55066;51.560;4.642;2023-04-05T12:44:04;17.48;62.77
68251;DHT22;55066;51.560;4.642;2023-04-05T12:46:40;17.63;85.38
68251;DHT22;55066;51.560;4.642;2023-04-05T12:49:06;17.15;58.78
68251;DHT22;55066;51.560;4.642;2023-04-05T12:51:34;17.19;80.50
68251;DHT22;55066;51.560;4.642;2023-04-05T12:54:00;15.31;52.89
68251;DHT22;55066;51.560;4.642;2023-04-05T12:56:28;14.51;58.55
68251;DHT22;55066;51.560;4.642;2023-04-05T12:58:54;14.74;63.91
68251;DHT22;55066;51.560;4.642;2023-04-05T13:01:20;15.36;69.72
68251;DHT22;55066;51.560;4.642;2023-04-05T13:03:46;15.90;82.96
68251;DHT22;55066;51.560;4.642;2023-04-05T13:06:11;16.62;86.76
68251;DHT22;55066;51.560;4.642;2023-04-05T13:08:37;15.36;56.72
68251;DHT22;55066;51.560;4.642;2023-04-05T13:11:02;14.95;58.76
68251;DHT22;55066;51.560;4.642;2023-04-05T13:13:27;15.67;61.46
68251;DHT22;55066;51.560;4.642;2023-04-05T13:15:53;15.67;55.34
68251;DHT22;55066;51.560;4.642;2023-04-05T13:18:19;16.29;60.59
68251;DHT22;55066;51.560;4.642;2023-04-05T13:20:44;15.64;57.27
68251;DHT22;55066;51.560;4.642;2023-04-05T13:23:10;16.21;69.48
68251;DHT22;55066;51.560;4.642;2023-04-05T13:25:41;15.80;63.81
68251;DHT22;55066;51.560;4.642;2023-04-05T13:28:08;16.43;79.02
68251;DHT22;55066;51.560;4.642;2023-04-05T13:30:33;17.18;88.28
68251;DHT22;55066;51.560;4.642;2023-04-05T13:32:59;16.18;60.08
68251;DHT22;55066;51.560;4.642;2023-04-05T13:35:24;16.35;62.71
68251;DHT22;55066;51.560;4.642;2023-04-05T13:37:50;15.67;72.47
68251;DHT22;55066;51.560;4.642;2023-04-05T13:40:16;16.01;74.03
68251;DHT22;55066;51.560;4.642;2023-04-05T13:42:41;16.30;74.76
68251;DHT22;55066;51.560;4.642;2023-04-05T13:45:07;15.05;54.31
68251;DHT22;55066;51.560;4.642;2023-04-05T13:47:33;15.57;57.48
68251;DHT22;55066;51.560;4.642;2023-04-05T13:49:58;16.25;70.49
68251;DHT22;55066;51.560;4.642;2023-04-05T13:52:24;16.64;71.78
68251;DHT22;55066;51.560;4.642;2023-04-05T13:54:50;17.24;73.40
68251;DHT22;55066;51.560;4.642;2023-04-05T13:57:16;17.90;81.38
68251;DHT22;55066;51.560;4.642;2023-04-05T13:59:41;18.51;70.46
68251;DHT22;55066;51.560;4.642;2023-04-05T14:02:07;17.38;64.75
68251;DHT22;55066;51.560;4.642;2023-04-05T14:04:32;17.86;82.15
68251;DHT22;55066;51.560;4.642;2023-04-05T14:06:57;18.86;83.65
68251;DHT22;55066;51.560;4.642;2023-04-05T14:09:23;19.24;67.39
68251;DHT22;55066;51.560;4.642;2023-04-05T14:11:48;18.80;61.75
68251;DHT22;55066;51.560;4.642;2023-04-05T14:14:14;18.90;67.91
68251;DHT22;55066;51.560;4.642;2023-04-05T14:16:39;18.15;56.97
68251;DHT22;55066;51.560;4.642;2023-04-05T14:19:05;19.10;62.24
68251;DHT22;55066;51.560;4.642;2023-04-05T14:21:30;19.28;55.56
68251;DHT22;55066;51.560;4.642;2023-04-05T14:23:57;18.41;53.68
68251;DHT22;55066;51.560;4.642;2023-04-05T14:26:24;19.72;81.03
68251;DHT22;55066;51.560;4.642;2023-04-05T14:28:50;18.75;49.06
68251;DHT22;55066;51.560;4.642;2023-04-05T14:31:16;18.49;51.40
68251;DHT22;55066;51.560;4.642;2023-04-05T14:33:41;17.46;56.25
68251;DHT22;55066;51.560;4.642;2023-04-05T14:36:07;17.93;81.61
68251;DHT22;55066;51.560;4.642;2023-04-05T14:38:32;19.13;56.48
68251;DHT22;55066;51.560;4.642;2023-04-05T14:40:58;19.11;60.00
68251;DHT22;55066;51.560;4.642;2023-04-05T14:43:23;20.01;65.22
68251;DHT22;55066;51.560;4.642;2023-04-05T14:45:50;17.48;63.31
68251;DHT22;55066;51.560;4.642;2023-04-05T14:48:15;17.84;80.61
68251;DHT22;55066;51.560;4.642;2023-04-05T14:50:41;18.60;74.88
68251;DHT22;55066;51.560;4.642;2023-04-05T14:53:06;18.90;79.48
68251;DHT22;55066;51.560;4.642;2023-04-05T14:55:32;19.32;78.40
68251;DHT22;55066;51.560;4.642;2023-04-05T14:57:57;20.07;74.14
68251;DHT22;55066;51.560;4.642;2023-04-05T15:00:22;18.45;66.11
68251;DHT22;55066;51.560;4.642;2023-04-05T15:02:48;19.62;77.38
68251;DHT22;55066;51.560;4.642;2023-04-05T15:05:14;18.83;54.84
68251;DHT22;55066;51.560;4.642;2023-04-05T15:07:39;19.62;76.85
68251;DHT22;55066;51.560;4.642;2023-04-05T15:10:05;18.65;69.27
68251;DHT22;55066;51.560;4.642;2023-04-05T15:12:31;19.03;74.56
68251;DHT22;55066;51.560;4.642;2023-04-05T15:14:56;19.18;76.49
68251;DHT22;55066;51.560;4.642;2023-04-05T15:17:22;18.99;73.27
68251;DHT22;55066;51.560;4.642;2023-04-05T15:19:48;18.97;72.08
68251;DHT22;55066;51.560;4.642;2023-04-05T15:22:13;18.96;78.27
68251;DHT22;55066;51.560;4.642;2023-04-05T15:24:40;17.83;67.14
68251;DHT22;55066;51.560;4.642;2023-04-05T15:27:07;18.07;72.69
68251;DHT22;55066;51.560;4.642;2023-04-05T15:29:33;17.35;73.86
68251;DHT22;55066;51.560;4.642;2023-04-05T15:31:59;16.76;83.30
68251;DHT22;55066;51.560;4.642;2023-04-05T15:34:26;16.60;60.89
68251;DHT22;55066;51.560;4.642;2023-04-05T15:36:52;16.56;57.45
68251;DHT22;55066;51.560;4.642;2023-04-05T15:39:18;17.89;76.80
68251;DHT22;55066;51.560;4.642;2023-04-05T15:41:44;17.28;63.66
68251;DHT22;55066;51.560;4.642;2023-04-05T15:44:11;17.83;77.57
68251;DHT22;55066;51.560;4.642;2023-04-05T15:46:36;17.96;74.82
68251;DHT22;55066;51.560;4.642;2023-04-05T15:49:02;18.55;78.48
68251;DHT22;55066;51.560;4.642;2023-04-05T15:51:27;19.15;76.88
68251;DHT22;55066;51.560;4.642;2023-04-05T15:53:52;18.58;74.57
68251;DHT22;55066;51.560;4.642;2023-04-05T15:56:18;18.17;76.33
68251;DHT22;55066;51.560;4.642;2023-04-05T15:58:43;17.72;71.05
68251;DHT22;55066;51.560;4.642;2023-04-05T16:01:09;18.15;79.66
68251;DHT22;55066;51.560;4.642;2023-04-05T16:03:35;18.87;74.90